Terminal Aerodrome Forecast
Issued by NWS

Home | Current Version | Previous Version | Text Only | Print | Product List | Glossary On
Versions: 1 2 3 4 5 6 7 8 9 10 11 12
292
FTUS44 KTSA 022337
TAFXNA
TAF
KXNA 022337Z 0300/0324 06003KT P6SM BKN070
     FM031200 08003KT P6SM VCSH OVC050
      TEMPO 0317/0321 5SM -RA BKN025
     FM032100 09006KT 4SM -RA BR BKN012=

USA.gov is the U.S. government's official web portal to all federal, state and local government web resources and services.